sensor_id;sensor_type;location;lat;lon;timestamp;temperature;humidity
30037;DHT22;36325;51.512;-0.382;2022-07-10T00:02:07;18.90;99.90
30037;DHT22;36325;51.512;-0.382;2022-07-10T00:04:34;18.90;99.90
30037;DHT22;36325;51.512;-0.382;2022-07-10T00:07:01;18.80;99.90
30037;DHT22;36325;51.512;-0.382;2022-07-10T00:09:30;18.80;99.90
30037;DHT22;36325;51.512;-0.382;2022-07-10T00:11:57;18.80;99.90
30037;DHT22;36325;51.512;-0.382;2022-07-10T00:14:24;18.70;99.90
30037;DHT22;36325;51.512;-0.382;2022-07-10T00:16:51;18.70;99.90
30037;DHT22;36325;51.512;-0.382;2022-07-10T00:19:19;18.70;99.90
30037;DHT22;36325;51.512;-0.382;2022-07-10T00:21:46;18.60;99.90
30037;DHT22;36325;51.512;-0.382;2022-07-10T00:24:14;18.60;99.90
30037;DHT22;36325;51.512;-0.382;2022-07-10T00:26:41;18.60;99.90
30037;DHT22;36325;51.512;-0.382;2022-07-10T00:29:08;18.50;99.90
30037;DHT22;36325;51.512;-0.382;2022-07-10T00:31:35;18.50;99.90
30037;DHT22;36325;51.512;-0.382;2022-07-10T00:34:03;18.40;99.90
30037;DHT22;36325;51.512;-0.382;2022-07-10T00:36:30;18.40;99.90
30037;DHT22;36325;51.512;-0.382;2022-07-10T00:38:57;18.30;99.90
30037;DHT22;36325;51.512;-0.382;2022-07-10T00:41:24;18.30;99.90
30037;DHT22;36325;51.512;-0.382;2022-07-10T00:43:57;18.30;99.90
30037;DHT22;36325;51.512;-0.382;2022-07-10T00:46:29;18.30;99.90
30037;DHT22;36325;51.512;-0.382;2022-07-10T00:48:57;18.20;99.90
30037;DHT22;36325;51.512;-0.382;2022-07-10T00:51:26;18.20;99.90
30037;DHT22;36325;51.512;-0.382;2022-07-10T00:53:54;18.20;99.90
30037;DHT22;36325;51.512;-0.382;2022-07-10T00:56:26;18.20;99.90
30037;DHT22;36325;51.512;-0.382;2022-07-10T00:58:54;18.10;99.90
30037;DHT22;36325;51.512;-0.382;2022-07-10T01:01:22;18.10;99.90
30037;DHT22;36325;51.512;-0.382;2022-07-10T01:03:50;18.00;99.90
30037;DHT22;36325;51.512;-0.382;2022-07-10T01:06:18;18.00;99.90
30037;DHT22;36325;51.512;-0.382;2022-07-10T01:08:45;18.00;99.90
30037;DHT22;36325;51.512;-0.382;2022-07-10T01:11:14;18.00;99.90
30037;DHT22;36325;51.512;-0.382;2022-07-10T01:13:43;18.00;99.90
30037;DHT22;36325;51.512;-0.382;2022-07-10T01:16:11;18.00;99.90
30037;DHT22;36325;51.512;-0.382;2022-07-10T01:18:39;18.00;99.90
30037;DHT22;36325;51.512;-0.382;2022-07-10T01:21:29;17.90;99.90
30037;DHT22;36325;51.512;-0.382;2022-07-10T01:23:58;17.90;99.90
30037;DHT22;36325;51.512;-0.382;2022-07-10T01:26:26;17.80;99.90
30037;DHT22;36325;51.512;-0.382;2022-07-10T01:28:54;17.80;99.90
30037;DHT22;36325;51.512;-0.382;2022-07-10T01:31:25;17.80;99.90
30037;DHT22;36325;51.512;-0.382;2022-07-10T01:33:54;17.80;99.90
30037;DHT22;36325;51.512;-0.382;2022-07-10T01:36:22;17.70;99.90
30037;DHT22;36325;51.512;-0.382;2022-07-10T01:38:54;17.70;99.90
30037;DHT22;36325;51.512;-0.382;2022-07-10T01:41:22;17.70;99.90
30037;DHT22;36325;51.512;-0.382;2022-07-10T01:43:49;17.70;99.90
30037;DHT22;36325;51.512;-0.382;2022-07-10T01:46:16;17.60;99.90
30037;DHT22;36325;51.512;-0.382;2022-07-10T01:48:44;17.60;99.90
30037;DHT22;36325;51.512;-0.382;2022-07-10T01:51:12;17.60;99.90
30037;DHT22;36325;51.512;-0.382;2022-07-10T01:53:40;17.60;99.90
30037;DHT22;36325;51.512;-0.382;2022-07-10T01:56:10;17.60;99.90
30037;DHT22;36325;51.512;-0.382;2022-07-10T01:58:38;17.50;99.90
30037;DHT22;36325;51.512;-0.382;2022-07-10T02:01:06;17.50;99.90
30037;DHT22;36325;51.512;-0.382;2022-07-10T02:03:34;17.50;99.90
30037;DHT22;36325;51.512;-0.382;2022-07-10T02:06:20;17.50;99.90
30037;DHT22;36325;51.512;-0.382;2022-07-10T02:08:47;17.40;99.90
30037;DHT22;36325;51.512;-0.382;2022-07-10T02:11:15;17.40;99.90
30037;DHT22;36325;51.512;-0.382;2022-07-10T02:13:42;17.40;99.90
30037;DHT22;36325;51.512;-0.382;2022-07-10T02:16:09;17.40;99.90
30037;DHT22;36325;51.512;-0.382;2022-07-10T02:18:38;17.40;99.90
30037;DHT22;36325;51.512;-0.382;2022-07-10T02:21:07;17.30;99.90
30037;DHT22;36325;51.512;-0.382;2022-07-10T02:23:34;17.30;99.90
30037;DHT22;36325;51.512;-0.382;2022-07-10T02:26:02;17.30;99.90
30037;DHT22;36325;51.512;-0.382;2022-07-10T02:28:30;17.30;99.90
30037;DHT22;36325;51.512;-0.382;2022-07-10T02:30:58;17.30;99.90
30037;DHT22;36325;51.512;-0.382;2022-07-10T02:33:25;17.30;99.90
30037;DHT22;36325;51.512;-0.382;2022-07-10T02:35:53;17.20;99.90
30037;DHT22;36325;51.512;-0.382;2022-07-10T02:38:20;17.20;99.90
30037;DHT22;36325;51.512;-0.382;2022-07-10T02:40:47;17.20;99.90
30037;DHT22;36325;51.512;-0.382;2022-07-10T02:43:14;17.20;99.90
30037;DHT22;36325;51.512;-0.382;2022-07-10T02:45:42;17.10;99.90
30037;DHT22;36325;51.512;-0.382;2022-07-10T02:48:14;17.10;99.90
30037;DHT22;36325;51.512;-0.382;2022-07-10T02:50:41;17.10;99.90
30037;DHT22;36325;51.512;-0.382;2022-07-10T02:53:08;17.00;99.90
30037;DHT22;36325;51.512;-0.382;2022-07-10T02:55:35;17.00;99.90
30037;DHT22;36325;51.512;-0.382;2022-07-10T02:58:02;17.00;99.90
30037;DHT22;36325;51.512;-0.382;2022-07-10T03:00:30;17.00;99.90
30037;DHT22;36325;51.512;-0.382;2022-07-10T03:02:58;16.90;99.90
30037;DHT22;36325;51.512;-0.382;2022-07-10T03:05:25;16.90;99.90
30037;DHT22;36325;51.512;-0.382;2022-07-10T03:07:54;16.90;99.90
30037;DHT22;36325;51.512;-0.382;2022-07-10T03:10:33;16.90;99.90
30037;DHT22;36325;51.512;-0.382;2022-07-10T03:13:08;16.80;99.90
30037;DHT22;36325;51.512;-0.382;2022-07-10T03:15:35;16.80;99.90
30037;DHT22;36325;51.512;-0.382;2022-07-10T03:18:03;16.80;99.90
30037;DHT22;36325;51.512;-0.382;2022-07-10T03:20:30;16.80;99.90
30037;DHT22;36325;51.512;-0.382;2022-07-10T03:22:57;16.80;99.90
30037;DHT22;36325;51.512;-0.382;2022-07-10T03:25:25;16.70;99.90
30037;DHT22;36325;51.512;-0.382;2022-07-10T03:27:53;16.70;99.90
30037;DHT22;36325;51.512;-0.382;2022-07-10T03:30:20;16.70;99.90
30037;DHT22;36325;51.512;-0.382;2022-07-10T03:32:47;16.70;99.90
30037;DHT22;36325;51.512;-0.382;2022-07-10T03:35:14;16.60;99.90
30037;DHT22;36325;51.512;-0.382;2022-07-10T03:37:42;16.60;99.90
30037;DHT22;36325;51.512;-0.382;2022-07-10T03:40:10;16.60;99.90
30037;DHT22;36325;51.512;-0.382;2022-07-10T03:42:37;16.60;99.90
30037;DHT22;36325;51.512;-0.382;2022-07-10T03:45:05;16.50;99.90
30037;DHT22;36325;51.512;-0.382;2022-07-10T03:47:32;16.50;99.90
30037;DHT22;36325;51.512;-0.382;2022-07-10T03:49:59;16.50;99.90
30037;DHT22;36325;51.512;-0.382;2022-07-10T03:52:26;16.50;99.90
30037;DHT22;36325;51.512;-0.382;2022-07-10T03:54:54;16.50;99.90
30037;DHT22;36325;51.512;-0.382;2022-07-10T03:57:21;16.40;99.90
30037;DHT22;36325;51.512;-0.382;2022-07-10T04:00:07;16.40;99.90
30037;DHT22;36325;51.512;-0.382;2022-07-10T04:02:40;16.40;99.90
30037;DHT22;36325;51.512;-0.382;2022-07-10T04:05:08;16.40;99.90
30037;DHT22;36325;51.512;-0.382;2022-07-10T04:07:36;16.30;99.90
30037;DHT22;36325;51.512;-0.382;2022-07-10T04:10:04;16.30;99.90
30037;DHT22;36325;51.512;-0.382;2022-07-10T04:12:32;16.30;99.90
30037;DHT22;36325;51.512;-0.382;2022-07-10T04:14:59;16.30;99.90
30037;DHT22;36325;51.512;-0.382;2022-07-10T04:17:26;16.30;99.90
30037;DHT22;36325;51.512;-0.382;2022-07-10T04:19:54;16.30;99.90
30037;DHT22;36325;51.512;-0.382;2022-07-10T04:22:21;16.30;99.90
30037;DHT22;36325;51.512;-0.382;2022-07-10T04:24:50;16.30;99.90
30037;DHT22;36325;51.512;-0.382;2022-07-10T04:27:17;16.30;99.90
30037;DHT22;36325;51.512;-0.382;2022-07-10T04:29:45;16.30;99.90
30037;DHT22;36325;51.512;-0.382;2022-07-10T04:32:12;16.30;99.90
30037;DHT22;36325;51.512;-0.382;2022-07-10T04:34:39;16.30;99.90
30037;DHT22;36325;51.512;-0.382;2022-07-10T04:37:07;16.40;99.90
30037;DHT22;36325;51.512;-0.382;2022-07-10T04:39:34;16.40;99.90
30037;DHT22;36325;51.512;-0.382;2022-07-10T04:42:02;16.40;99.90
30037;DHT22;36325;51.512;-0.382;2022-07-10T04:44:30;16.40;99.90
30037;DHT22;36325;51.512;-0.382;2022-07-10T04:46:58;16.40;99.90
30037;DHT22;36325;51.512;-0.382;2022-07-10T04:49:25;14.00;99.90
30037;DHT22;36325;51.512;-0.382;2022-07-10T04:51:53;16.40;99.90
30037;DHT22;36325;51.512;-0.382;2022-07-10T04:54:20;16.50;99.90
30037;DHT22;36325;51.512;-0.382;2022-07-10T04:56:47;16.50;99.90
30037;DHT22;36325;51.512;-0.382;2022-07-10T04:59:15;16.50;99.90
30037;DHT22;36325;51.512;-0.382;2022-07-10T05:01:43;16.50;99.90
30037;DHT22;36325;51.512;-0.382;2022-07-10T05:04:11;16.50;99.90
30037;DHT22;36325;51.512;-0.382;2022-07-10T05:06:38;16.60;99.90
30037;DHT22;36325;51.512;-0.382;2022-07-10T05:09:05;16.60;99.90
30037;DHT22;36325;51.512;-0.382;2022-07-10T05:11:33;16.60;99.90
30037;DHT22;36325;51.512;-0.382;2022-07-10T05:14:00;16.60;99.90
30037;DHT22;36325;51.512;-0.382;2022-07-10T05:16:27;16.60;99.90
30037;DHT22;36325;51.512;-0.382;2022-07-10T05:18:54;16.60;99.90
30037;DHT22;36325;51.512;-0.382;2022-07-10T05:21:22;16.70;99.90
30037;DHT22;36325;51.512;-0.382;2022-07-10T05:23:49;16.70;99.90
30037;DHT22;36325;51.512;-0.382;2022-07-10T05:26:16;16.70;99.90
30037;DHT22;36325;51.512;-0.382;2022-07-10T05:28:44;16.70;99.90
30037;DHT22;36325;51.512;-0.382;2022-07-10T05:31:11;16.80;99.90
30037;DHT22;36325;51.512;-0.382;2022-07-10T05:33:38;16.90;99.90
30037;DHT22;36325;51.512;-0.382;2022-07-10T05:36:08;16.80;99.90
30037;DHT22;36325;51.512;-0.382;2022-07-10T05:38:36;16.90;99.90
30037;DHT22;36325;51.512;-0.382;2022-07-10T05:41:03;16.90;99.90
30037;DHT22;36325;51.512;-0.382;2022-07-10T05:43:30;17.00;99.90
30037;DHT22;36325;51.512;-0.382;2022-07-10T05:48:25;17.10;99.90
30037;DHT22;36325;51.512;-0.382;2022-07-10T05:50:53;17.00;99.90
30037;DHT22;36325;51.512;-0.382;2022-07-10T05:53:27;17.10;99.90
30037;DHT22;36325;51.512;-0.382;2022-07-10T05:55:54;17.10;99.90
30037;DHT22;36325;51.512;-0.382;2022-07-10T05:58:21;17.20;99.90
30037;DHT22;36325;51.512;-0.382;2022-07-10T06:00:48;17.20;99.90
30037;DHT22;36325;51.512;-0.382;2022-07-10T06:03:17;17.20;99.90
30037;DHT22;36325;51.512;-0.382;2022-07-10T06:05:44;17.30;99.90
30037;DHT22;36325;51.512;-0.382;2022-07-10T06:08:11;17.30;99.90
30037;DHT22;36325;51.512;-0.382;2022-07-10T06:10:39;17.40;99.90
30037;DHT22;36325;51.512;-0.382;2022-07-10T06:13:07;17.40;99.90
30037;DHT22;36325;51.512;-0.382;2022-07-10T06:15:34;17.50;99.90
30037;DHT22;36325;51.512;-0.382;2022-07-10T06:18:01;17.50;99.90
30037;DHT22;36325;51.512;-0.382;2022-07-10T06:20:29;17.60;99.90
30037;DHT22;36325;51.512;-0.382;2022-07-10T06:22:58;17.60;99.90
30037;DHT22;36325;51.512;-0.382;2022-07-10T06:25:25;17.60;99.90
30037;DHT22;36325;51.512;-0.382;2022-07-10T06:27:52;17.70;99.90
30037;DHT22;36325;51.512;-0.382;2022-07-10T06:30:19;17.80;99.90
30037;DHT22;36325;51.512;-0.382;2022-07-10T06:32:47;17.80;99.90
30037;DHT22;36325;51.512;-0.382;2022-07-10T06:35:14;17.90;99.90
30037;DHT22;36325;51.512;-0.382;2022-07-10T06:37:41;17.90;99.90
30037;DHT22;36325;51.512;-0.382;2022-07-10T06:40:11;18.00;99.90
30037;DHT22;36325;51.512;-0.382;2022-07-10T06:42:40;18.00;99.90
30037;DHT22;36325;51.512;-0.382;2022-07-10T06:45:11;18.10;99.90
30037;DHT22;36325;51.512;-0.382;2022-07-10T06:47:39;18.20;99.90
30037;DHT22;36325;51.512;-0.382;2022-07-10T06:50:29;18.20;99.90
30037;DHT22;36325;51.512;-0.382;2022-07-10T06:52:58;18.20;99.90
30037;DHT22;36325;51.512;-0.382;2022-07-10T06:55:26;18.30;99.90
30037;DHT22;36325;51.512;-0.382;2022-07-10T06:57:54;18.30;99.90
30037;DHT22;36325;51.512;-0.382;2022-07-10T07:00:22;18.40;99.90
30037;DHT22;36325;51.512;-0.382;2022-07-10T07:02:49;18.40;99.90
30037;DHT22;36325;51.512;-0.382;2022-07-10T07:05:17;19.00;99.90
30037;DHT22;36325;51.512;-0.382;2022-07-10T07:07:44;18.50;99.90
30037;DHT22;36325;51.512;-0.382;2022-07-10T07:10:11;18.50;99.90
30037;DHT22;36325;51.512;-0.382;2022-07-10T07:12:38;18.60;99.90
30037;DHT22;36325;51.512;-0.382;2022-07-10T07:15:06;18.60;99.90
30037;DHT22;36325;51.512;-0.382;2022-07-10T07:17:42;18.70;99.90
30037;DHT22;36325;51.512;-0.382;2022-07-10T07:20:35;18.80;99.90
30037;DHT22;36325;51.512;-0.382;2022-07-10T07:23:22;18.80;99.90
30037;DHT22;36325;51.512;-0.382;2022-07-10T07:25:50;18.90;99.90
30037;DHT22;36325;51.512;-0.382;2022-07-10T07:28:18;19.00;99.90
30037;DHT22;36325;51.512;-0.382;2022-07-10T07:30:49;19.10;99.90
30037;DHT22;36325;51.512;-0.382;2022-07-10T07:33:17;19.20;99.90
30037;DHT22;36325;51.512;-0.382;2022-07-10T07:35:44;19.30;99.90
30037;DHT22;36325;51.512;-0.382;2022-07-10T07:38:11;19.40;99.90
30037;DHT22;36325;51.512;-0.382;2022-07-10T07:40:38;19.40;99.90
30037;DHT22;36325;51.512;-0.382;2022-07-10T07:43:06;19.50;99.90
30037;DHT22;36325;51.512;-0.382;2022-07-10T07:45:33;19.60;99.90
30037;DHT22;36325;51.512;-0.382;2022-07-10T07:48:01;19.60;99.90
30037;DHT22;36325;51.512;-0.382;2022-07-10T07:50:35;19.70;99.90
30037;DHT22;36325;51.512;-0.382;2022-07-10T07:53:04;19.90;99.90
30037;DHT22;36325;51.512;-0.382;2022-07-10T07:55:32;20.00;99.90
30037;DHT22;36325;51.512;-0.382;2022-07-10T07:58:00;20.20;99.90
30037;DHT22;36325;51.512;-0.382;2022-07-10T08:00:28;20.30;99.90
30037;DHT22;36325;51.512;-0.382;2022-07-10T08:02:57;20.40;99.90
30037;DHT22;36325;51.512;-0.382;2022-07-10T08:05:25;20.60;99.90
30037;DHT22;36325;51.512;-0.382;2022-07-10T08:07:54;20.90;99.90
30037;DHT22;36325;51.512;-0.382;2022-07-10T08:10:24;21.00;99.90
30037;DHT22;36325;51.512;-0.382;2022-07-10T08:12:53;21.00;99.90
30037;DHT22;36325;51.512;-0.382;2022-07-10T08:15:21;21.10;99.90
30037;DHT22;36325;51.512;-0.382;2022-07-10T08:17:55;21.40;99.90
30037;DHT22;36325;51.512;-0.382;2022-07-10T08:20:24;21.60;99.90
30037;DHT22;36325;51.512;-0.382;2022-07-10T08:22:52;21.90;99.90
30037;DHT22;36325;51.512;-0.382;2022-07-10T08:25:27;22.20;99.90
30037;DHT22;36325;51.512;-0.382;2022-07-10T08:27:54;22.40;99.90
30037;DHT22;36325;51.512;-0.382;2022-07-10T08:30:21;22.50;99.90
30037;DHT22;36325;51.512;-0.382;2022-07-10T08:32:49;22.70;99.90
30037;DHT22;36325;51.512;-0.382;2022-07-10T08:35:16;22.90;99.90
30037;DHT22;36325;51.512;-0.382;2022-07-10T08:37:44;23.10;99.90
30037;DHT22;36325;51.512;-0.382;2022-07-10T08:40:13;23.30;99.90
30037;DHT22;36325;51.512;-0.382;2022-07-10T08:42:42;23.50;99.90
30037;DHT22;36325;51.512;-0.382;2022-07-10T08:45:12;23.80;99.90
30037;DHT22;36325;51.512;-0.382;2022-07-10T08:47:40;23.90;99.90
30037;DHT22;36325;51.512;-0.382;2022-07-10T08:50:24;24.10;99.90
30037;DHT22;36325;51.512;-0.382;2022-07-10T08:52:57;24.30;99.90
30037;DHT22;36325;51.512;-0.382;2022-07-10T08:55:28;25.60;99.90
30037;DHT22;36325;51.512;-0.382;2022-07-10T08:57:55;24.80;99.90
30037;DHT22;36325;51.512;-0.382;2022-07-10T09:00:23;24.80;99.90
30037;DHT22;36325;51.512;-0.382;2022-07-10T09:02:53;24.80;99.90
30037;DHT22;36325;51.512;-0.382;2022-07-10T09:05:21;24.80;99.90
30037;DHT22;36325;51.512;-0.382;2022-07-10T09:07:48;25.00;99.90
30037;DHT22;36325;51.512;-0.382;2022-07-10T09:10:15;25.00;99.90
30037;DHT22;36325;51.512;-0.382;2022-07-10T09:13:00;25.20;99.90
30037;DHT22;36325;51.512;-0.382;2022-07-10T09:15:30;25.40;99.90
30037;DHT22;36325;51.512;-0.382;2022-07-10T09:18:01;25.40;99.90
30037;DHT22;36325;51.512;-0.382;2022-07-10T09:20:35;25.60;99.90
30037;DHT22;36325;51.512;-0.382;2022-07-10T09:23:21;25.80;99.90
30037;DHT22;36325;51.512;-0.382;2022-07-10T09:25:51;26.10;99.90
30037;DHT22;36325;51.512;-0.382;2022-07-10T09:28:21;26.60;99.90
30037;DHT22;36325;51.512;-0.382;2022-07-10T09:30:49;26.60;99.90
30037;DHT22;36325;51.512;-0.382;2022-07-10T09:33:30;26.70;99.90
30037;DHT22;36325;51.512;-0.382;2022-07-10T09:36:08;26.90;99.90
30037;DHT22;36325;51.512;-0.382;2022-07-10T09:41:25;27.40;99.90
30037;DHT22;36325;51.512;-0.382;2022-07-10T09:44:03;27.50;99.90
30037;DHT22;36325;51.512;-0.382;2022-07-10T09:46:37;27.60;99.90
30037;DHT22;36325;51.512;-0.382;2022-07-10T09:49:10;27.80;99.90
30037;DHT22;36325;51.512;-0.382;2022-07-10T09:51:39;28.10;99.90
30037;DHT22;36325;51.512;-0.382;2022-07-10T09:54:14;28.10;99.90
30037;DHT22;36325;51.512;-0.382;2022-07-10T09:56:48;28.10;99.90
30037;DHT22;36325;51.512;-0.382;2022-07-10T09:59:21;28.40;99.90
30037;DHT22;36325;51.512;-0.382;2022-07-10T10:01:50;28.70;99.90
30037;DHT22;36325;51.512;-0.382;2022-07-10T10:04:19;29.00;99.90
30037;DHT22;36325;51.512;-0.382;2022-07-10T10:06:50;29.30;99.90
30037;DHT22;36325;51.512;-0.382;2022-07-10T10:09:33;29.50;99.90
30037;DHT22;36325;51.512;-0.382;2022-07-10T10:12:07;29.60;99.90
30037;DHT22;36325;51.512;-0.382;2022-07-10T10:14:39;30.20;99.90
30037;DHT22;36325;51.512;-0.382;2022-07-10T10:17:08;30.20;99.90
30037;DHT22;36325;51.512;-0.382;2022-07-10T10:19:36;30.50;99.90
30037;DHT22;36325;51.512;-0.382;2022-07-10T10:22:24;30.50;99.90
30037;DHT22;36325;51.512;-0.382;2022-07-10T10:24:53;30.50;99.90
30037;DHT22;36325;51.512;-0.382;2022-07-10T10:27:21;30.60;99.90
30037;DHT22;36325;51.512;-0.382;2022-07-10T10:29:49;30.60;99.90
30037;DHT22;36325;51.512;-0.382;2022-07-10T10:32:16;30.80;99.70
30037;DHT22;36325;51.512;-0.382;2022-07-10T10:34:48;30.90;99.20
30037;DHT22;36325;51.512;-0.382;2022-07-10T10:37:39;30.80;98.20
30037;DHT22;36325;51.512;-0.382;2022-07-10T10:40:31;30.80;97.80
30037;DHT22;36325;51.512;-0.382;2022-07-10T10:43:18;31.40;97.00
30037;DHT22;36325;51.512;-0.382;2022-07-10T10:45:47;31.40;97.00
30037;DHT22;36325;51.512;-0.382;2022-07-10T10:48:20;31.40;95.90
30037;DHT22;36325;51.512;-0.382;2022-07-10T10:51:04;31.30;95.70
30037;DHT22;36325;51.512;-0.382;2022-07-10T10:53:31;31.20;95.50
30037;DHT22;36325;51.512;-0.382;2022-07-10T10:58:28;31.20;95.50
30037;DHT22;36325;51.512;-0.382;2022-07-10T11:04:13;31.80;93.70
30037;DHT22;36325;51.512;-0.382;2022-07-10T11:06:51;32.10;92.90
30037;DHT22;36325;51.512;-0.382;2022-07-10T11:09:30;32.20;91.90
30037;DHT22;36325;51.512;-0.382;2022-07-10T11:14:27;32.70;91.20
30037;DHT22;36325;51.512;-0.382;2022-07-10T11:16:56;33.00;91.10
30037;DHT22;36325;51.512;-0.382;2022-07-10T11:19:25;33.50;90.50
30037;DHT22;36325;51.512;-0.382;2022-07-10T11:24:33;34.40;86.00
30037;DHT22;36325;51.512;-0.382;2022-07-10T11:29:58;34.60;80.70
30037;DHT22;36325;51.512;-0.382;2022-07-10T11:32:26;34.90;80.80
30037;DHT22;36325;51.512;-0.382;2022-07-10T11:34:54;35.10;79.60
30037;DHT22;36325;51.512;-0.382;2022-07-10T11:37:21;35.40;78.80
30037;DHT22;36325;51.512;-0.382;2022-07-10T11:39:52;35.80;77.20
30037;DHT22;36325;51.512;-0.382;2022-07-10T11:42:53;36.00;75.20
30037;DHT22;36325;51.512;-0.382;2022-07-10T11:45:27;36.30;72.50
30037;DHT22;36325;51.512;-0.382;2022-07-10T11:47:56;36.70;71.40
30037;DHT22;36325;51.512;-0.382;2022-07-10T11:50:25;37.20;69.60
30037;DHT22;36325;51.512;-0.382;2022-07-10T11:52:53;38.40;68.40
30037;DHT22;36325;51.512;-0.382;2022-07-10T11:55:22;37.40;64.80
30037;DHT22;36325;51.512;-0.382;2022-07-10T11:57:50;37.50;63.50
30037;DHT22;36325;51.512;-0.382;2022-07-10T12:00:24;37.40;62.60
30037;DHT22;36325;51.512;-0.382;2022-07-10T12:02:54;37.70;61.90
30037;DHT22;36325;51.512;-0.382;2022-07-10T12:05:35;38.30;60.90
30037;DHT22;36325;51.512;-0.382;2022-07-10T12:08:03;38.80;59.20
30037;DHT22;36325;51.512;-0.382;2022-07-10T12:10:32;39.30;59.00
30037;DHT22;36325;51.512;-0.382;2022-07-10T12:13:08;39.80;58.20
30037;DHT22;36325;51.512;-0.382;2022-07-10T12:15:39;40.30;56.60
30037;DHT22;36325;51.512;-0.382;2022-07-10T12:18:08;40.60;55.40
30037;DHT22;36325;51.512;-0.382;2022-07-10T12:20:37;41.20;54.10
30037;DHT22;36325;51.512;-0.382;2022-07-10T12:23:05;41.40;52.40
30037;DHT22;36325;51.512;-0.382;2022-07-10T12:25:32;41.80;51.10
30037;DHT22;36325;51.512;-0.382;2022-07-10T12:27:59;42.10;50.10
30037;DHT22;36325;51.512;-0.382;2022-07-10T12:30:44;42.60;50.00
30037;DHT22;36325;51.512;-0.382;2022-07-10T12:33:18;42.10;47.40
30037;DHT22;36325;51.512;-0.382;2022-07-10T12:35:56;41.80;48.20
30037;DHT22;36325;51.512;-0.382;2022-07-10T12:38:27;41.80;47.90
30037;DHT22;36325;51.512;-0.382;2022-07-10T12:41:10;42.00;47.60
30037;DHT22;36325;51.512;-0.382;2022-07-10T12:43:39;42.50;47.40
30037;DHT22;36325;51.512;-0.382;2022-07-10T12:46:13;43.10;47.00
30037;DHT22;36325;51.512;-0.382;2022-07-10T12:49:09;43.50;45.90
30037;DHT22;36325;51.512;-0.382;2022-07-10T12:51:47;43.80;44.60
30037;DHT22;36325;51.512;-0.382;2022-07-10T12:54:37;44.30;44.00
30037;DHT22;36325;51.512;-0.382;2022-07-10T12:57:05;44.70;43.00
30037;DHT22;36325;51.512;-0.382;2022-07-10T12:59:34;44.90;42.30
30037;DHT22;36325;51.512;-0.382;2022-07-10T13:02:19;45.00;41.70
30037;DHT22;36325;51.512;-0.382;2022-07-10T13:04:57;45.00;40.40
30037;DHT22;36325;51.512;-0.382;2022-07-10T13:07:35;45.50;39.30
30037;DHT22;36325;51.512;-0.382;2022-07-10T13:10:05;45.50;39.50
30037;DHT22;36325;51.512;-0.382;2022-07-10T13:12:33;45.60;39.70
30037;DHT22;36325;51.512;-0.382;2022-07-10T13:15:03;45.90;38.80
30037;DHT22;36325;51.512;-0.382;2022-07-10T13:17:30;45.80;39.30
30037;DHT22;36325;51.512;-0.382;2022-07-10T13:22:26;46.00;38.00
30037;DHT22;36325;51.512;-0.382;2022-07-10T13:24:53;45.50;37.90
30037;DHT22;36325;51.512;-0.382;2022-07-10T13:27:20;44.10;38.20
30037;DHT22;36325;51.512;-0.382;2022-07-10T13:29:48;43.40;38.80
30037;DHT22;36325;51.512;-0.382;2022-07-10T13:32:16;43.20;39.10
30037;DHT22;36325;51.512;-0.382;2022-07-10T13:34:43;43.10;39.50
30037;DHT22;36325;51.512;-0.382;2022-07-10T13:37:10;43.70;39.60
30037;DHT22;36325;51.512;-0.382;2022-07-10T13:39:40;44.30;39.10
30037;DHT22;36325;51.512;-0.382;2022-07-10T13:42:08;44.40;38.40
30037;DHT22;36325;51.512;-0.382;2022-07-10T13:44:35;44.60;38.20
30037;DHT22;36325;51.512;-0.382;2022-07-10T13:47:02;43.70;38.50
30037;DHT22;36325;51.512;-0.382;2022-07-10T13:49:30;42.60;38.90
30037;DHT22;36325;51.512;-0.382;2022-07-10T13:51:57;42.30;39.20
30037;DHT22;36325;51.512;-0.382;2022-07-10T13:54:25;42.70;38.80
30037;DHT22;36325;51.512;-0.382;2022-07-10T13:56:52;43.40;38.50
30037;DHT22;36325;51.512;-0.382;2022-07-10T13:59:19;43.90;38.20
30037;DHT22;36325;51.512;-0.382;2022-07-10T14:01:47;43.90;37.90
30037;DHT22;36325;51.512;-0.382;2022-07-10T14:04:14;44.00;38.00
30037;DHT22;36325;51.512;-0.382;2022-07-10T14:06:41;44.30;37.80
30037;DHT22;36325;51.512;-0.382;2022-07-10T14:09:08;44.40;37.50
30037;DHT22;36325;51.512;-0.382;2022-07-10T14:11:36;44.00;37.60
30037;DHT22;36325;51.512;-0.382;2022-07-10T14:14:03;43.30;37.90
30037;DHT22;36325;51.512;-0.382;2022-07-10T14:16:30;42.50;38.20
30037;DHT22;36325;51.512;-0.382;2022-07-10T14:18:57;42.00;38.40
30037;DHT22;36325;51.512;-0.382;2022-07-10T14:21:24;41.30;38.70
30037;DHT22;36325;51.512;-0.382;2022-07-10T14:23:54;40.60;39.20
30037;DHT22;36325;51.512;-0.382;2022-07-10T14:26:23;39.90;39.80
30037;DHT22;36325;51.512;-0.382;2022-07-10T14:28:50;39.40;40.10
30037;DHT22;36325;51.512;-0.382;2022-07-10T14:31:18;40.10;40.30
30037;DHT22;36325;51.512;-0.382;2022-07-10T14:33:46;41.00;39.80
30037;DHT22;36325;51.512;-0.382;2022-07-10T14:36:13;41.70;39.30
30037;DHT22;36325;51.512;-0.382;2022-07-10T14:38:41;42.10;39.00
30037;DHT22;36325;51.512;-0.382;2022-07-10T14:41:08;42.10;38.90
30037;DHT22;36325;51.512;-0.382;2022-07-10T14:43:36;41.90;38.90
30037;DHT22;36325;51.512;-0.382;2022-07-10T14:46:03;42.00;38.80
30037;DHT22;36325;51.512;-0.382;2022-07-10T14:48:32;42.90;38.40
30037;DHT22;36325;51.512;-0.382;2022-07-10T14:51:01;43.80;37.90
30037;DHT22;36325;51.512;-0.382;2022-07-10T14:53:28;44.00;37.30
30037;DHT22;36325;51.512;-0.382;2022-07-10T14:55:57;44.20;37.30
30037;DHT22;36325;51.512;-0.382;2022-07-10T14:58:24;44.60;37.10
30037;DHT22;36325;51.512;-0.382;2022-07-10T15:00:52;45.00;36.80
30037;DHT22;36325;51.512;-0.382;2022-07-10T15:03:20;45.60;36.60
30037;DHT22;36325;51.512;-0.382;2022-07-10T15:05:48;45.70;36.00
30037;DHT22;36325;51.512;-0.382;2022-07-10T15:08:22;45.90;35.90
30037;DHT22;36325;51.512;-0.382;2022-07-10T15:11:02;45.50;36.10
30037;DHT22;36325;51.512;-0.382;2022-07-10T15:13:32;45.30;35.70
30037;DHT22;36325;51.512;-0.382;2022-07-10T15:15:59;45.00;35.60
30037;DHT22;36325;51.512;-0.382;2022-07-10T15:18:28;45.00;35.70
30037;DHT22;36325;51.512;-0.382;2022-07-10T15:20:55;45.20;35.60
30037;DHT22;36325;51.512;-0.382;2022-07-10T15:23:25;44.80;35.60
30037;DHT22;36325;51.512;-0.382;2022-07-10T15:25:55;43.90;35.80
30037;DHT22;36325;51.512;-0.382;2022-07-10T15:28:25;43.10;36.20
30037;DHT22;36325;51.512;-0.382;2022-07-10T15:30:52;43.00;36.40
30037;DHT22;36325;51.512;-0.382;2022-07-10T15:33:19;42.50;36.60
30037;DHT22;36325;51.512;-0.382;2022-07-10T15:35:46;41.80;36.90
30037;DHT22;36325;51.512;-0.382;2022-07-10T15:38:13;41.50;37.30
30037;DHT22;36325;51.512;-0.382;2022-07-10T15:40:41;40.70;37.70
30037;DHT22;36325;51.512;-0.382;2022-07-10T15:43:08;39.80;38.30
30037;DHT22;36325;51.512;-0.382;2022-07-10T15:45:35;39.70;38.60
30037;DHT22;36325;51.512;-0.382;2022-07-10T15:48:03;39.50;38.90
30037;DHT22;36325;51.512;-0.382;2022-07-10T15:50:30;39.20;39.20
30037;DHT22;36325;51.512;-0.382;2022-07-10T15:53:00;39.20;39.30